Time;durP1;ratioP1;P1;durP2;ratioP2;P2;SDS_P1;SDS_P2;PMS_P1;PMS_P2;Temp;Humidity;BMP_temperature;BMP_pressure;BME280_temperature;BME280_humidity;BME280_pressure;Samples;Min_cycle;Max_cycle;Signal;HPM_P1;HPM_P2
2021/12/02 00:02:32;;;;;;;30.05;18.95;;;4.90;99.90;;;;;;1915660;73;21145;-85
2021/12/02 00:05:24;;;;;;;31.10;19.35;;;5.00;99.90;;;;;;1924082;73;21054;-87
2021/12/02 00:08:16;;;;;;;33.10;19.90;;;5.00;99.90;;;;;;1916163;75;21058;-87
2021/12/02 00:11:08;;;;;;;27.77;18.77;;;5.00;99.90;;;;;;1926763;73;21098;-86
2021/12/02 00:14:05;;;;;;;29.18;18.50;;;5.00;99.90;;;;;;1929000;73;21043;-86
2021/12/02 00:17:04;;;;;;;30.02;17.77;;;5.00;99.90;;;;;;1929780;73;21157;-86
2021/12/02 00:23:26;;;;;;;34.10;20.23;;;5.00;99.90;;;;;;1914746;75;21064;-86
2021/12/02 00:26:38;;;;;;;32.48;19.60;;;5.00;99.90;;;;;;1917396;73;21045;-86
2021/12/02 00:29:49;;;;;;;31.17;19.45;;;5.00;99.90;;;;;;1917673;73;21062;-86
2021/12/02 00:32:43;;;;;;;31.45;18.80;;;5.00;99.90;;;;;;1915004;75;21066;-86
2021/12/02 00:35:35;;;;;;;33.13;19.65;;;5.00;99.90;;;;;;1919666;74;21129;-85
2021/12/02 00:41:06;;;;;;;31.12;19.35;;;5.00;99.90;;;;;;1935716;72;22259;-85
2021/12/02 00:43:59;;;;;;;33.55;20.32;;;5.00;99.90;;;;;;1899058;74;21063;-87
2021/12/02 00:46:51;;;;;;;36.28;20.68;;;5.00;99.90;;;;;;1874327;75;21155;-86
2021/12/02 00:49:43;;;;;;;33.60;19.82;;;5.10;99.90;;;;;;1890293;75;21063;-86
2021/12/02 00:52:54;;;;;;;34.23;19.07;;;5.10;99.90;;;;;;1874556;75;21104;-87
2021/12/02 00:55:45;;;;;;;32.30;20.15;;;5.10;99.90;;;;;;1893528;75;21125;-85
2021/12/02 01:01:19;;;;;;;33.50;20.45;;;5.10;99.90;;;;;;1964116;72;22319;-87
2021/12/02 01:06:52;;;;;;;29.85;18.32;;;5.10;99.90;;;;;;1953684;72;22209;-87
2021/12/02 01:09:44;;;;;;;25.55;17.30;;;5.10;99.90;;;;;;1910207;74;21056;-87
2021/12/02 01:12:37;;;;;;;26.33;17.10;;;5.10;99.90;;;;;;1918357;74;21051;-88
2021/12/02 01:15:30;;;;;;;23.45;17.15;;;5.10;99.90;;;;;;1923297;74;21149;-86
2021/12/02 01:18:40;;;;;;;24.43;17.17;;;5.10;99.90;;;;;;1907815;74;21129;-86
2021/12/02 01:21:31;;;;;;;26.40;18.35;;;5.00;99.90;;;;;;1848032;77;21153;-86
2021/12/02 01:27:06;;;;;;;26.48;18.50;;;5.00;99.90;;;;;;1919599;72;22241;-86
2021/12/02 01:29:59;;;;;;;25.70;18.15;;;5.00;99.90;;;;;;1888417;74;21177;-87
2021/12/02 01:32:51;;;;;;;27.95;18.37;;;4.90;99.90;;;;;;1901042;75;21103;-86
2021/12/02 01:41:05;;;;;;;26.57;17.85;;;5.00;99.90;;;;;;1933722;72;22224;-86
2021/12/02 01:46:38;;;;;;;25.82;17.95;;;5.00;99.90;;;;;;1941830;72;22287;-87
2021/12/02 01:49:33;;;;;;;25.43;17.42;;;5.00;99.90;;;;;;1897297;74;21164;-87
2021/12/02 01:52:27;;;;;;;25.08;17.55;;;5.00;99.90;;;;;;1903593;75;21159;-86
2021/12/02 01:55:19;;;;;;;24.37;17.77;;;4.90;99.90;;;;;;1913708;74;21635;-87
2021/12/02 01:58:31;;;;;;;23.83;17.42;;;4.90;99.90;;;;;;1884605;75;21223;-84
2021/12/02 02:01:25;;;;;;;27.70;18.65;;;5.00;99.90;;;;;;1900119;75;21167;-84
2021/12/02 02:04:21;;;;;;;30.10;19.00;;;5.00;99.90;;;;;;1914428;74;21101;-84
2021/12/02 02:07:15;;;;;;;27.00;18.52;;;5.10;99.90;;;;;;1900237;74;21081;-84
2021/12/02 02:10:08;;;;;;;28.87;19.00;;;5.00;99.90;;;;;;1894374;75;21398;-84
2021/12/02 02:15:50;;;;;;;28.83;19.48;;;5.00;99.90;;;;;;1946117;72;22174;-83
2021/12/02 02:18:40;;;;;;;29.37;19.02;;;4.90;99.90;;;;;;1912925;74;21159;-84
2021/12/02 02:21:34;;;;;;;27.07;18.32;;;4.90;99.90;;;;;;1921804;74;21119;-85
2021/12/02 02:27:05;;;;;;;31.82;19.25;;;4.80;99.90;;;;;;1950503;72;22153;-85
2021/12/02 02:29:58;;;;;;;29.27;19.42;;;4.90;99.90;;;;;;1919575;73;21100;-85
2021/12/02 02:32:52;;;;;;;34.25;20.65;;;4.90;99.90;;;;;;1923260;74;21051;-85
2021/12/02 02:35:45;;;;;;;35.30;21.17;;;4.90;99.90;;;;;;1923588;74;21036;-84
2021/12/02 02:41:39;;;;;;;36.48;20.97;;;4.90;99.90;;;;;;1937129;72;22252;-84
2021/12/02 02:44:32;;;;;;;33.95;19.60;;;4.90;99.90;;;;;;1893151;75;21110;-84
2021/12/02 02:47:26;;;;;;;34.50;19.65;;;4.90;99.90;;;;;;1892017;75;21162;-84
2021/12/02 02:52:59;;;;;;;33.15;21.27;;;5.00;99.90;;;;;;1950753;72;22146;-85
2021/12/02 02:56:00;;;;;;;38.23;21.23;;;5.00;99.90;;;;;;1894970;75;21171;-85
2021/12/02 03:01:39;;;;;;;35.08;20.40;;;4.90;99.90;;;;;;1951482;72;22108;-85
2021/12/02 03:04:36;;;;;;;35.75;22.15;;;5.00;99.90;;;;;;1904096;75;21052;-84
2021/12/02 03:07:32;;;;;;;36.13;21.60;;;4.90;99.90;;;;;;1897616;75;21224;-84
2021/12/02 03:10:27;;;;;;;39.15;22.80;;;5.00;99.90;;;;;;1901587;75;21040;-84
2021/12/02 03:22:01;;;;;;;36.65;21.57;;;4.90;99.90;;;;;;1952581;72;22146;-85
2021/12/02 03:24:53;;;;;;;40.88;21.80;;;4.90;99.90;;;;;;1897686;74;21062;-84
2021/12/02 03:27:44;;;;;;;38.17;20.85;;;4.90;99.90;;;;;;1901369;75;21087;-84
2021/12/02 03:30:36;;;;;;;41.05;21.75;;;4.90;99.90;;;;;;1906189;75;21165;-84
2021/12/02 03:36:25;;;;;;;35.90;21.02;;;5.00;99.90;;;;;;1973907;72;22121;-84
2021/12/02 03:39:16;;;;;;;34.73;19.35;;;5.00;99.90;;;;;;1905324;75;21152;-85
2021/12/02 03:42:09;;;;;;;35.63;20.57;;;5.00;99.90;;;;;;1905300;75;21123;-84
2021/12/02 03:45:00;;;;;;;34.13;20.43;;;5.10;99.90;;;;;;1905171;75;21062;-85
2021/12/02 03:48:10;;;;;;;36.53;21.12;;;5.10;99.90;;;;;;1912274;74;21051;-84
2021/12/02 03:51:01;;;;;;;34.80;20.85;;;5.10;99.90;;;;;;1907027;74;21058;-84
2021/12/02 03:53:53;;;;;;;37.35;21.45;;;5.20;99.90;;;;;;1932310;74;21201;-84
2021/12/02 03:56:45;;;;;;;37.85;22.45;;;5.20;99.90;;;;;;1919620;74;21118;-84
2021/12/02 03:59:36;;;;;;;31.20;20.57;;;5.20;99.90;;;;;;1907065;74;21110;-84
2021/12/02 04:02:28;;;;;;;33.13;20.75;;;5.10;99.90;;;;;;1905225;75;21164;-84
2021/12/02 04:05:19;;;;;;;30.62;19.55;;;5.20;99.90;;;;;;1908042;74;21094;-84
2021/12/02 04:10:58;;;;;;;30.15;19.85;;;5.20;99.90;;;;;;1931971;72;22116;-85
2021/12/02 04:13:51;;;;;;;31.97;19.77;;;5.10;99.90;;;;;;1891251;75;21107;-84
2021/12/02 04:16:39;;;;;;;30.48;19.20;;;5.10;99.90;;;;;;1905287;75;21121;-84
2021/12/02 04:22:09;;;;;;;25.27;16.48;;;5.00;99.90;;;;;;1951217;72;22150;-84
2021/12/02 04:25:00;;;;;;;27.00;16.48;;;5.10;99.90;;;;;;1817821;77;21106;-85
2021/12/02 04:27:54;;;;;;;23.62;16.12;;;5.10;99.90;;;;;;1821601;78;21057;-84
2021/12/02 04:30:45;;;;;;;22.40;16.12;;;5.10;99.90;;;;;;1876717;75;21111;-84
2021/12/02 04:36:33;;;;;;;26.48;16.67;;;5.10;99.90;;;;;;1919328;72;22350;-85
2021/12/02 04:39:24;;;;;;;22.77;15.18;;;5.10;99.90;;;;;;1866721;76;21129;-84
2021/12/02 04:42:15;;;;;;;22.15;14.95;;;5.10;99.90;;;;;;1936417;73;21148;-84
2021/12/02 04:45:08;;;;;;;21.50;13.85;;;5.20;99.90;;;;;;1938777;74;21073;-83
2021/12/02 04:50:56;;;;;;;20.55;12.90;;;5.10;99.90;;;;;;1943360;72;22218;-84
2021/12/02 04:56:26;;;;;;;20.85;13.72;;;5.00;99.90;;;;;;1952354;72;22551;-82
2021/12/02 05:01:57;;;;;;;15.70;10.38;;;5.00;99.90;;;;;;1937329;72;22118;-83
2021/12/02 05:07:28;;;;;;;6.92;4.70;;;4.90;99.90;;;;;;1930257;72;22190;-85
2021/12/02 05:10:19;;;;;;;7.20;4.67;;;4.90;99.90;;;;;;1899467;75;21340;-85
2021/12/02 05:21:12;;;;;;;8.45;5.40;;;4.80;99.90;;;;;;1976046;72;22247;-85
2021/12/02 05:24:03;;;;;;;7.65;5.25;;;4.70;99.90;;;;;;1921360;73;21120;-86
2021/12/02 05:26:54;;;;;;;7.33;5.45;;;4.70;99.90;;;;;;1905283;75;21054;-84
2021/12/02 05:29:45;;;;;;;9.93;7.25;;;4.70;99.90;;;;;;1906304;74;21157;-84
2021/12/02 05:32:55;;;;;;;13.20;9.00;;;4.60;99.90;;;;;;1927439;74;21095;-84
2021/12/02 05:35:47;;;;;;;14.23;9.40;;;4.70;99.90;;;;;;1905160;75;21157;-84
2021/12/02 05:41:19;;;;;;;13.68;8.60;;;4.80;99.90;;;;;;1930570;72;22205;-85
2021/12/02 05:44:11;;;;;;;11.90;7.58;;;4.80;99.90;;;;;;1887096;75;21068;-85
2021/12/02 05:47:03;;;;;;;11.80;8.15;;;4.80;99.90;;;;;;1887653;75;21126;-84
2021/12/02 05:49:54;;;;;;;12.98;10.15;;;4.80;99.90;;;;;;1897347;75;21040;-83
2021/12/02 05:53:03;;;;;;;15.70;10.45;;;4.80;99.90;;;;;;1902541;75;21129;-86
2021/12/02 05:55:55;;;;;;;17.15;10.90;;;4.80;99.90;;;;;;1902953;75;21099;-85
2021/12/02 06:01:25;;;;;;;18.52;12.13;;;4.80;99.90;;;;;;1935188;72;22189;-84
2021/12/02 06:04:18;;;;;;;19.57;12.88;;;4.80;99.90;;;;;;1904846;75;21108;-84
2021/12/02 06:07:09;;;;;;;16.50;11.12;;;4.80;99.90;;;;;;1881614;75;21134;-84
2021/12/02 06:10:00;;;;;;;18.20;11.63;;;5.00;99.90;;;;;;1890783;75;21180;-83
2021/12/02 06:15:50;;;;;;;23.87;15.05;;;5.00;99.90;;;;;;1942420;72;22283;-85
2021/12/02 06:18:41;;;;;;;24.40;15.35;;;4.90;99.90;;;;;;1858497;76;21154;-83
2021/12/02 06:21:34;;;;;;;27.90;16.05;;;4.90;99.90;;;;;;1921758;74;21089;-85
2021/12/02 06:24:29;;;;;;;28.07;17.57;;;4.90;99.90;;;;;;1920177;74;21109;-84
2021/12/02 06:27:38;;;;;;;28.12;17.42;;;5.00;99.90;;;;;;1900310;75;21143;-84
2021/12/02 06:35:51;;;;;;;26.17;17.57;;;5.00;99.90;;;;;;1948425;72;22174;-85
2021/12/02 06:41:22;;;;;;;29.23;17.25;;;5.10;99.90;;;;;;1932370;72;22182;-85
2021/12/02 06:46:54;;;;;;;25.95;16.65;;;5.10;99.90;;;;;;1975779;72;22173;-85
2021/12/02 06:49:49;;;;;;;22.70;14.07;;;5.20;99.90;;;;;;1910975;73;21120;-85
2021/12/02 06:52:41;;;;;;;21.42;14.03;;;5.20;99.90;;;;;;1904940;75;21095;-84
2021/12/02 07:00:56;;;;;;;15.95;11.20;;;5.20;99.90;;;;;;1942834;72;22186;-84
2021/12/02 07:06:26;;;;;;;13.50;9.85;;;5.20;99.90;;;;;;1961212;72;22169;-85
2021/12/02 07:09:18;;;;;;;13.43;8.98;;;5.20;99.90;;;;;;1942338;73;21302;-84
2021/12/02 07:12:12;;;;;;;12.23;8.75;;;5.20;99.90;;;;;;1917291;75;21142;-84
2021/12/02 07:17:56;;;;;;;12.50;9.18;;;5.20;99.90;;;;;;1960782;72;22166;-85
2021/12/02 07:20:50;;;;;;;11.30;8.33;;;5.20;99.90;;;;;;1906637;74;21118;-85
2021/12/02 07:31:46;;;;;;;12.88;8.83;;;5.20;99.90;;;;;;1940062;72;22245;-85
2021/12/02 07:34:40;;;;;;;12.23;9.20;;;5.20;99.90;;;;;;1892452;75;21117;-84
2021/12/02 07:37:34;;;;;;;12.43;9.30;;;5.20;99.90;;;;;;1889859;75;21095;-84
2021/12/02 07:40:29;;;;;;;11.95;8.40;;;5.20;99.90;;;;;;1903283;75;21067;-85
2021/12/02 07:46:20;;;;;;;16.25;10.98;;;5.20;99.90;;;;;;1946656;72;22370;-85
2021/12/02 07:49:14;;;;;;;16.48;10.82;;;5.20;99.90;;;;;;1939968;73;21095;-85
2021/12/02 07:52:08;;;;;;;17.05;11.63;;;5.30;99.90;;;;;;1863374;76;21161;-86
2021/12/02 07:55:02;;;;;;;21.68;12.45;;;5.30;99.90;;;;;;1926940;73;21088;-85
2021/12/02 07:58:12;;;;;;;21.20;12.20;;;5.30;99.90;;;;;;1917013;75;21126;-85
2021/12/02 08:01:05;;;;;;;21.23;12.63;;;5.40;99.90;;;;;;1917394;73;21168;-85
2021/12/02 08:03:56;;;;;;;21.87;13.18;;;5.30;99.90;;;;;;1929568;73;21150;-86
2021/12/02 08:06:49;;;;;;;19.42;12.93;;;5.30;99.90;;;;;;1930854;73;21119;-87
2021/12/02 08:09:41;;;;;;;19.50;12.00;;;5.40;99.90;;;;;;1931425;73;21109;-86
2021/12/02 08:12:33;;;;;;;14.58;10.43;;;5.40;99.90;;;;;;1941664;73;21160;-86
2021/12/02 08:18:08;;;;;;;15.55;11.12;;;5.50;99.90;;;;;;1957122;72;22131;-85
2021/12/02 08:20:59;;;;;;;14.03;10.55;;;5.60;99.90;;;;;;1905183;75;21154;-84
2021/12/02 08:26:30;;;;;;;14.95;11.18;;;5.60;99.90;;;;;;1974653;72;22186;-85
2021/12/02 08:32:02;;;;;;;15.63;10.50;;;5.70;99.90;;;;;;1942104;72;22212;-85
2021/12/02 08:34:54;;;;;;;15.90;10.85;;;5.70;99.90;;;;;;1910075;75;21058;-85
2021/12/02 08:37:48;;;;;;;13.58;10.72;;;5.70;99.90;;;;;;1905821;75;21113;-85
2021/12/02 08:40:42;;;;;;;14.68;10.68;;;5.80;99.90;;;;;;1882466;76;21055;-85
2021/12/02 08:46:37;;;;;;;16.32;12.53;;;5.90;99.90;;;;;;1927413;72;28159;-86
2021/12/02 08:49:30;;;;;;;12.98;9.60;;;6.20;99.90;;;;;;1900033;75;21159;-85
2021/12/02 08:52:22;;;;;;;11.50;8.75;;;6.20;99.90;;;;;;1917270;75;21208;-85
2021/12/02 08:57:52;;;;;;;12.00;9.83;;;6.30;99.90;;;;;;1948511;72;22201;-85
2021/12/02 09:00:44;;;;;;;12.25;8.53;;;6.30;99.90;;;;;;1927559;74;21100;-85
2021/12/02 09:03:36;;;;;;;10.38;8.23;;;6.40;99.90;;;;;;1919540;74;21072;-85
2021/12/02 09:06:28;;;;;;;11.03;8.00;;;6.40;99.90;;;;;;1919552;74;21047;-85
2021/12/02 09:09:38;;;;;;;11.97;8.78;;;6.40;99.90;;;;;;1938803;74;21023;-85
2021/12/02 09:12:29;;;;;;;11.75;8.20;;;6.40;99.90;;;;;;1908158;74;21121;-85
2021/12/02 09:15:22;;;;;;;14.55;9.83;;;6.50;99.90;;;;;;1926278;74;21043;-85
2021/12/02 09:18:16;;;;;;;15.55;10.58;;;6.50;99.90;;;;;;1905282;75;21072;-85
2021/12/02 09:21:08;;;;;;;20.32;14.93;;;6.50;99.90;;;;;;1920437;74;21177;-85
2021/12/02 09:26:40;;;;;;;16.23;10.35;;;6.50;99.90;;;;;;1950864;72;22146;-85
2021/12/02 09:29:31;;;;;;;12.88;9.78;;;6.50;99.90;;;;;;1928573;73;21593;-84
2021/12/02 09:35:11;;;;;;;14.35;11.38;;;6.50;99.90;;;;;;1952970;72;28061;-85
2021/12/02 09:38:05;;;;;;;10.53;8.63;;;6.80;99.90;;;;;;1940274;73;21096;-85
2021/12/02 09:40:56;;;;;;;13.50;9.80;;;6.80;99.90;;;;;;1917520;75;21059;-85
2021/12/02 09:46:27;;;;;;;15.98;9.95;;;6.80;99.90;;;;;;1958120;72;22254;-86
2021/12/02 09:49:24;;;;;;;14.45;11.15;;;6.70;99.90;;;;;;1887060;75;21170;-84
2021/12/02 09:52:18;;;;;;;14.90;9.75;;;6.80;99.90;;;;;;1898577;75;21048;-86
2021/12/02 09:55:19;;;;;;;13.50;6.35;;;6.80;99.90;;;;;;1905235;75;21120;-85
2021/12/02 10:01:09;;;;;;;15.90;10.40;;;6.40;99.90;;;;;;1931308;72;22106;-85
2021/12/02 10:04:04;;;;;;;15.72;11.40;;;6.50;99.90;;;;;;1898080;75;21476;-85
2021/12/02 10:07:09;;;;;;;17.12;11.45;;;6.50;99.90;;;;;;1903580;75;21123;-86
2021/12/02 10:10:12;;;;;;;17.50;12.10;;;6.60;99.90;;;;;;1893794;75;21141;-85
2021/12/02 10:18:56;;;;;;;16.02;11.28;;;6.70;99.90;;;;;;1955053;72;22173;-85
2021/12/02 10:21:54;;;;;;;17.45;11.33;;;6.80;99.90;;;;;;1913363;73;21076;-85
2021/12/02 10:27:26;;;;;;;17.62;12.07;;;7.10;99.90;;;;;;1963656;72;22086;-85
2021/12/02 10:30:26;;;;;;;16.12;10.75;;;7.20;99.90;;;;;;1925159;74;21117;-84
2021/12/02 10:36:26;;;;;;;4.40;1.82;;;7.20;99.90;;;;;;1953005;72;22079;-85
2021/12/02 10:42:04;;;;;;;3.27;1.90;;;6.90;99.90;;;;;;1958197;72;22194;-84
2021/12/02 10:45:01;;;;;;;2.33;1.35;;;6.80;99.90;;;;;;1902191;75;21098;-85
2021/12/02 10:47:52;;;;;;;5.03;1.70;;;6.80;99.90;;;;;;1906885;75;21559;-85
2021/12/02 10:50:44;;;;;;;2.75;1.40;;;6.80;99.90;;;;;;1905309;75;21176;-84
2021/12/02 10:56:42;;;;;;;2.60;1.42;;;6.70;99.90;;;;;;1944068;72;22109;-85
2021/12/02 10:59:39;;;;;;;4.10;2.12;;;6.60;99.90;;;;;;1894528;73;21121;-85
2021/12/02 11:02:34;;;;;;;2.95;2.00;;;6.50;99.90;;;;;;1916386;74;21126;-85
2021/12/02 11:05:29;;;;;;;3.02;1.77;;;6.40;99.90;;;;;;1930641;74;21076;-84
2021/12/02 11:08:38;;;;;;;3.35;2.00;;;6.20;99.90;;;;;;1916725;74;21479;-84
2021/12/02 11:11:31;;;;;;;4.28;1.62;;;6.10;99.90;;;;;;1906052;74;21166;-84
2021/12/02 11:14:22;;;;;;;3.77;1.65;;;6.10;99.90;;;;;;1896355;74;21196;-84
2021/12/02 11:17:17;;;;;;;2.65;1.75;;;6.10;99.90;;;;;;1926463;74;21125;-85
2021/12/02 11:20:12;;;;;;;3.58;1.80;;;6.10;99.90;;;;;;1892703;74;21139;-84
2021/12/02 11:23:07;;;;;;;3.37;1.62;;;6.20;99.90;;;;;;1919825;74;21075;-84
2021/12/02 11:31:21;;;;;;;3.47;2.15;;;6.00;99.90;;;;;;1952391;72;22866;-85
2021/12/02 11:37:06;;;;;;;3.00;2.08;;;6.10;99.90;;;;;;1947479;72;22211;-86
2021/12/02 11:40:01;;;;;;;2.95;1.55;;;6.20;99.90;;;;;;1893838;75;21059;-85
2021/12/02 11:42:55;;;;;;;16.25;9.98;;;6.30;99.90;;;;;;1906345;75;21130;-84
2021/12/02 11:45:58;;;;;;;13.62;9.25;;;6.40;99.90;;;;;;1906477;75;21601;-84
2021/12/02 11:49:11;;;;;;;18.05;10.75;;;6.50;99.90;;;;;;1904796;75;21124;-85
2021/12/02 11:52:04;;;;;;;12.13;8.33;;;6.70;99.90;;;;;;1917307;75;21047;-84
2021/12/02 11:54:59;;;;;;;16.77;10.55;;;6.80;99.90;;;;;;1905034;75;21183;-85
2021/12/02 11:57:50;;;;;;;15.78;10.63;;;6.90;99.90;;;;;;1909542;75;21118;-84
2021/12/02 12:00:43;;;;;;;10.72;7.20;;;7.00;99.90;;;;;;1915976;75;21660;-84
2021/12/02 12:06:18;;;;;;;15.88;10.38;;;7.00;99.90;;;;;;1957875;72;22180;-86
2021/12/02 12:11:53;;;;;;;17.35;10.58;;;7.20;99.90;;;;;;1952571;72;22322;-85
2021/12/02 12:14:48;;;;;;;18.95;11.78;;;7.20;99.90;;;;;;1917416;75;21134;-85
2021/12/02 12:17:42;;;;;;;14.05;10.28;;;7.30;99.90;;;;;;1926401;73;21047;-85
2021/12/02 12:20:55;;;;;;;18.70;10.95;;;7.30;99.90;;;;;;1919718;73;21275;-85
2021/12/02 12:26:46;;;;;;;17.12;11.80;;;7.20;99.90;;;;;;1949971;72;22309;-85
2021/12/02 12:29:38;;;;;;;15.00;9.95;;;7.20;99.90;;;;;;1906337;74;21128;-84
2021/12/02 12:36:02;;;;;;;5.83;3.25;;;7.20;99.90;;;;;;1907732;74;21043;-84
2021/12/02 12:39:29;;;;;;;4.60;2.05;;;6.70;99.90;;;;;;1912330;74;21199;-84
2021/12/02 12:42:24;;;;;;;1.90;1.35;;;6.40;99.90;;;;;;1904959;75;21059;-84
2021/12/02 12:48:14;;;;;;;1.95;1.55;;;5.90;99.90;;;;;;1957397;72;22655;-85
2021/12/02 12:56:46;;;;;;;1.57;1.20;;;5.30;99.90;;;;;;1976144;72;22134;-86
2021/12/02 12:59:54;;;;;;;0.80;0.60;;;5.10;99.90;;;;;;1928665;73;21167;-86
2021/12/02 13:02:57;;;;;;;1.80;0.57;;;5.00;99.90;;;;;;1924683;73;21039;-85
2021/12/02 13:05:52;;;;;;;1.15;0.65;;;4.90;99.90;;;;;;1940110;73;21120;-86
2021/12/02 13:11:43;;;;;;;0.95;0.60;;;4.80;99.90;;;;;;1959227;72;22184;-86
2021/12/02 13:14:36;;;;;;;1.62;0.90;;;4.80;99.90;;;;;;1905344;75;21167;-85
2021/12/02 13:17:41;;;;;;;0.95;0.65;;;4.90;99.90;;;;;;1905259;75;21133;-85
2021/12/02 13:26:10;;;;;;;2.67;1.12;;;5.30;99.90;;;;;;1948870;72;22115;-85
2021/12/02 13:31:53;;;;;;;3.25;2.10;;;5.60;99.90;;;;;;1943608;72;22217;-85
2021/12/02 13:34:45;;;;;;;4.75;3.60;;;5.80;99.90;;;;;;1920976;74;21043;-85
2021/12/02 13:37:36;;;;;;;5.50;4.30;;;6.00;99.90;;;;;;1905016;75;21224;-85
2021/12/02 13:46:13;;;;;;;5.75;3.67;;;6.10;99.90;;;;;;1940300;72;22151;-86
2021/12/02 13:49:11;;;;;;;2.42;1.10;;;6.10;99.90;;;;;;1882634;75;21106;-86
2021/12/02 13:52:21;;;;;;;2.77;1.27;;;6.00;99.90;;;;;;1906331;75;21091;-85
2021/12/02 13:55:17;;;;;;;2.90;0.80;;;5.90;99.90;;;;;;1902404;75;21152;-86
2021/12/02 13:58:30;;;;;;;3.58;2.45;;;5.90;99.90;;;;;;1900804;75;21047;-85
2021/12/02 14:01:23;;;;;;;7.15;3.70;;;6.00;99.90;;;;;;1884188;75;21052;-86
2021/12/02 14:04:17;;;;;;;7.40;3.37;;;6.10;99.90;;;;;;1895320;75;21491;-86
2021/12/02 14:07:14;;;;;;;2.12;0.95;;;6.10;99.90;;;;;;1904707;75;21518;-85
2021/12/02 14:10:09;;;;;;;2.37;1.57;;;6.00;99.90;;;;;;1916450;75;21051;-86
2021/12/02 14:13:04;;;;;;;2.55;1.00;;;6.00;99.90;;;;;;1888498;75;21514;-85
2021/12/02 14:16:00;;;;;;;2.15;0.70;;;5.90;99.90;;;;;;1917487;74;21059;-85
2021/12/02 14:21:31;;;;;;;0.17;0.17;;;4.20;99.90;;;;;;1958203;72;22108;-88
2021/12/02 14:27:18;;;;;;;0.30;0.30;;;2.90;99.90;;;;;;1943057;72;22151;-88
2021/12/02 14:30:18;;;;;;;0.68;0.20;;;2.80;99.90;;;;;;1897363;75;21641;-87
2021/12/02 14:33:11;;;;;;;0.37;0.20;;;2.70;99.90;;;;;;1894712;75;21538;-88
2021/12/02 14:36:08;;;;;;;0.80;0.30;;;2.60;99.90;;;;;;1893813;75;21169;-88
2021/12/02 14:42:01;;;;;;;0.20;0.20;;;2.40;99.90;;;;;;1957658;72;22182;-88
2021/12/02 14:47:38;;;;;;;0.20;0.17;;;2.30;99.90;;;;;;1975316;72;22102;-90
2021/12/02 14:53:26;;;;;;;1.00;0.10;;;2.20;99.90;;;;;;1942277;72;22162;-90
2021/12/02 14:56:31;;;;;;;0.10;0.10;;;2.10;99.90;;;;;;1900281;73;21047;-90
2021/12/02 15:02:10;;;;;;;1.52;0.20;;;2.00;99.90;;;;;;2076603;68;27700;-89
2021/12/02 15:05:03;;;;;;;0.45;0.17;;;2.00;99.90;;;;;;2032946;69;21113;-89
2021/12/02 15:07:57;;;;;;;0.10;0.10;;;2.10;99.90;;;;;;2033341;70;21403;-89
